Terminal Aerodrome Forecast
Issued by NWS Shreveport, LA

Home | Current Version | Previous Version | Text Only | Print | Product List | Glossary On
Versions: 1 2 3 4 5 6 7 8 9 10 11 12 13 14
000
FTUS44 KSHV 230548
TAFSHV
TAF
KSHV 230548Z 2306/2406 16004KT P6SM BKN250
     FM231500 23005KT P6SM SCT035 SCT250
     FM231900 20005KT P6SM VCTS SCT050CB BKN250
     FM240200 20005KT P6SM SCT250=

USA.gov is the U.S. government's official web portal to all federal, state and local government web resources and services.